sensor_id;sensor_type;location;lat;lon;timestamp;temperature;humidity
38684;DHT22;24910;53.248;-6.134;2022-11-04T00:00:40;9.40;87.00
38684;DHT22;24910;53.248;-6.134;2022-11-04T00:03:11;9.40;87.00
38684;DHT22;24910;53.248;-6.134;2022-11-04T00:05:40;9.40;87.00
38684;DHT22;24910;53.248;-6.134;2022-11-04T00:08:12;9.40;87.00
38684;DHT22;24910;53.248;-6.134;2022-11-04T00:10:53;9.40;87.00
38684;DHT22;24910;53.248;-6.134;2022-11-04T00:13:40;9.30;87.00
38684;DHT22;24910;53.248;-6.134;2022-11-04T00:16:09;9.30;87.00
38684;DHT22;24910;53.248;-6.134;2022-11-04T00:18:58;9.30;87.00
38684;DHT22;24910;53.248;-6.134;2022-11-04T00:21:27;9.30;87.00
38684;DHT22;24910;53.248;-6.134;2022-11-04T00:24:14;9.30;87.00
38684;DHT22;24910;53.248;-6.134;2022-11-04T00:27:01;9.30;87.00
38684;DHT22;24910;53.248;-6.134;2022-11-04T00:29:48;9.30;87.00
38684;DHT22;24910;53.248;-6.134;2022-11-04T00:32:17;9.30;87.00
38684;DHT22;24910;53.248;-6.134;2022-11-04T00:35:06;9.30;87.00
38684;DHT22;24910;53.248;-6.134;2022-11-04T00:37:36;9.30;87.00
38684;DHT22;24910;53.248;-6.134;2022-11-04T00:40:08;9.30;87.00
38684;DHT22;24910;53.248;-6.134;2022-11-04T00:42:37;9.30;87.00
38684;DHT22;24910;53.248;-6.134;2022-11-04T00:45:07;9.30;87.00
38684;DHT22;24910;53.248;-6.134;2022-11-04T00:47:36;9.30;87.00
38684;DHT22;24910;53.248;-6.134;2022-11-04T00:50:08;9.30;87.00
38684;DHT22;24910;53.248;-6.134;2022-11-04T00:52:37;9.30;87.00
38684;DHT22;24910;53.248;-6.134;2022-11-04T00:55:07;9.30;87.00
38684;DHT22;24910;53.248;-6.134;2022-11-04T00:57:36;9.30;87.20
38684;DHT22;24910;53.248;-6.134;2022-11-04T01:00:07;9.30;87.20
38684;DHT22;24910;53.248;-6.134;2022-11-04T01:02:36;9.30;87.20
38684;DHT22;24910;53.248;-6.134;2022-11-04T01:05:08;9.30;87.20
38684;DHT22;24910;53.248;-6.134;2022-11-04T01:07:37;9.30;87.10
38684;DHT22;24910;53.248;-6.134;2022-11-04T01:10:10;9.30;87.10
38684;DHT22;24910;53.248;-6.134;2022-11-04T01:12:39;9.30;87.10
38684;DHT22;24910;53.248;-6.134;2022-11-04T01:15:09;9.30;87.20
38684;DHT22;24910;53.248;-6.134;2022-11-04T01:17:38;9.30;88.10
38684;DHT22;24910;53.248;-6.134;2022-11-04T01:20:10;9.30;87.40
38684;DHT22;24910;53.248;-6.134;2022-11-04T01:22:40;9.30;87.50
38684;DHT22;24910;53.248;-6.134;2022-11-04T01:25:10;9.30;87.50
38684;DHT22;24910;53.248;-6.134;2022-11-04T01:27:39;9.30;87.60
38684;DHT22;24910;53.248;-6.134;2022-11-04T01:30:09;9.30;88.50
38684;DHT22;24910;53.248;-6.134;2022-11-04T01:32:39;9.30;87.70
38684;DHT22;24910;53.248;-6.134;2022-11-04T01:35:09;9.30;87.50
38684;DHT22;24910;53.248;-6.134;2022-11-04T01:37:38;9.30;87.60
38684;DHT22;24910;53.248;-6.134;2022-11-04T01:40:08;9.30;87.60
38684;DHT22;24910;53.248;-6.134;2022-11-04T01:42:38;9.20;87.60
38684;DHT22;24910;53.248;-6.134;2022-11-04T01:45:13;9.30;87.70
38684;DHT22;24910;53.248;-6.134;2022-11-04T01:47:45;9.20;87.50
38684;DHT22;24910;53.248;-6.134;2022-11-04T01:50:21;9.30;87.60
38684;DHT22;24910;53.248;-6.134;2022-11-04T01:52:53;9.30;87.70
38684;DHT22;24910;53.248;-6.134;2022-11-04T01:55:26;9.20;87.80
38684;DHT22;24910;53.248;-6.134;2022-11-04T01:57:59;9.20;87.90
38684;DHT22;24910;53.248;-6.134;2022-11-04T02:00:29;9.20;88.00
38684;DHT22;24910;53.248;-6.134;2022-11-04T02:03:00;9.20;88.10
38684;DHT22;24910;53.248;-6.134;2022-11-04T02:05:33;9.20;88.20
38684;DHT22;24910;53.248;-6.134;2022-11-04T02:08:04;9.10;88.20
38684;DHT22;24910;53.248;-6.134;2022-11-04T02:10:34;9.10;88.20
38684;DHT22;24910;53.248;-6.134;2022-11-04T02:13:04;9.10;88.20
38684;DHT22;24910;53.248;-6.134;2022-11-04T02:15:38;9.10;88.30
38684;DHT22;24910;53.248;-6.134;2022-11-04T02:18:34;9.10;88.40
38684;DHT22;24910;53.248;-6.134;2022-11-04T02:24:40;9.10;88.50
38684;DHT22;24910;53.248;-6.134;2022-11-04T02:27:20;9.10;88.50
38684;DHT22;24910;53.248;-6.134;2022-11-04T02:30:03;9.00;88.40
38684;DHT22;24910;53.248;-6.134;2022-11-04T02:33:04;9.00;88.50
38684;DHT22;24910;53.248;-6.134;2022-11-04T02:35:44;9.00;88.70
38684;DHT22;24910;53.248;-6.134;2022-11-04T02:38:28;9.10;88.70
38684;DHT22;24910;53.248;-6.134;2022-11-04T02:41:03;9.00;88.70
38684;DHT22;24910;53.248;-6.134;2022-11-04T02:43:40;9.00;88.80
38684;DHT22;24910;53.248;-6.134;2022-11-04T02:46:15;9.10;89.00
38684;DHT22;24910;53.248;-6.134;2022-11-04T02:48:50;9.00;88.90
38684;DHT22;24910;53.248;-6.134;2022-11-04T02:51:25;9.00;89.10
38684;DHT22;24910;53.248;-6.134;2022-11-04T02:54:01;9.00;89.20
38684;DHT22;24910;53.248;-6.134;2022-11-04T02:56:36;9.00;89.30
38684;DHT22;24910;53.248;-6.134;2022-11-04T02:59:09;9.00;89.30
38684;DHT22;24910;53.248;-6.134;2022-11-04T03:01:42;9.00;89.40
38684;DHT22;24910;53.248;-6.134;2022-11-04T03:04:14;9.00;89.40
38684;DHT22;24910;53.248;-6.134;2022-11-04T03:06:46;9.00;89.50
38684;DHT22;24910;53.248;-6.134;2022-11-04T03:09:18;9.00;89.60
38684;DHT22;24910;53.248;-6.134;2022-11-04T03:11:52;9.00;89.60
38684;DHT22;24910;53.248;-6.134;2022-11-04T03:14:28;9.00;89.50
38684;DHT22;24910;53.248;-6.134;2022-11-04T03:17:03;9.00;89.60
38684;DHT22;24910;53.248;-6.134;2022-11-04T03:19:39;8.90;89.60
38684;DHT22;24910;53.248;-6.134;2022-11-04T03:22:11;9.00;89.70
38684;DHT22;24910;53.248;-6.134;2022-11-04T03:24:44;9.00;89.60
38684;DHT22;24910;53.248;-6.134;2022-11-04T03:27:21;9.00;89.70
38684;DHT22;24910;53.248;-6.134;2022-11-04T03:29:57;9.00;89.70
38684;DHT22;24910;53.248;-6.134;2022-11-04T03:32:36;9.00;89.70
38684;DHT22;24910;53.248;-6.134;2022-11-04T03:35:09;9.00;89.80
38684;DHT22;24910;53.248;-6.134;2022-11-04T03:37:38;9.00;89.80
38684;DHT22;24910;53.248;-6.134;2022-11-04T03:40:08;9.00;89.60
38684;DHT22;24910;53.248;-6.134;2022-11-04T03:42:42;9.00;89.70
38684;DHT22;24910;53.248;-6.134;2022-11-04T03:45:13;9.00;89.80
38684;DHT22;24910;53.248;-6.134;2022-11-04T03:47:43;9.00;89.80
38684;DHT22;24910;53.248;-6.134;2022-11-04T03:50:18;9.00;89.80
38684;DHT22;24910;53.248;-6.134;2022-11-04T03:52:48;9.00;89.70
38684;DHT22;24910;53.248;-6.134;2022-11-04T03:55:17;9.00;89.80
38684;DHT22;24910;53.248;-6.134;2022-11-04T03:57:52;9.00;89.80
38684;DHT22;24910;53.248;-6.134;2022-11-04T04:00:26;9.00;89.80
38684;DHT22;24910;53.248;-6.134;2022-11-04T04:03:06;9.00;89.70
38684;DHT22;24910;53.248;-6.134;2022-11-04T04:05:41;9.00;89.70
38684;DHT22;24910;53.248;-6.134;2022-11-04T04:08:15;9.00;89.70
38684;DHT22;24910;53.248;-6.134;2022-11-04T04:10:53;9.00;89.80
38684;DHT22;24910;53.248;-6.134;2022-11-04T04:13:37;9.10;89.80
38684;DHT22;24910;53.248;-6.134;2022-11-04T04:16:09;9.00;89.70
38684;DHT22;24910;53.248;-6.134;2022-11-04T04:18:43;9.10;89.60
38684;DHT22;24910;53.248;-6.134;2022-11-04T04:21:26;9.00;89.60
38684;DHT22;24910;53.248;-6.134;2022-11-04T04:23:58;9.00;89.70
38684;DHT22;24910;53.248;-6.134;2022-11-04T04:26:47;9.00;89.70
38684;DHT22;24910;53.248;-6.134;2022-11-04T04:29:35;9.00;89.70
38684;DHT22;24910;53.248;-6.134;2022-11-04T04:32:06;9.00;89.70
38684;DHT22;24910;53.248;-6.134;2022-11-04T04:34:36;9.00;89.70
38684;DHT22;24910;53.248;-6.134;2022-11-04T04:37:08;9.00;89.80
38684;DHT22;24910;53.248;-6.134;2022-11-04T04:39:42;9.00;89.80
38684;DHT22;24910;53.248;-6.134;2022-11-04T04:42:31;9.00;89.80
38684;DHT22;24910;53.248;-6.134;2022-11-04T04:45:21;8.90;89.80
38684;DHT22;24910;53.248;-6.134;2022-11-04T04:47:51;8.90;89.90
38684;DHT22;24910;53.248;-6.134;2022-11-04T04:50:24;8.90;89.90
38684;DHT22;24910;53.248;-6.134;2022-11-04T04:52:55;9.00;89.90
38684;DHT22;24910;53.248;-6.134;2022-11-04T04:55:26;8.90;89.90
38684;DHT22;24910;53.248;-6.134;2022-11-04T04:57:55;8.90;90.00
38684;DHT22;24910;53.248;-6.134;2022-11-04T05:00:24;8.90;89.90
38684;DHT22;24910;53.248;-6.134;2022-11-04T05:02:53;8.90;89.90
38684;DHT22;24910;53.248;-6.134;2022-11-04T05:05:24;8.90;89.80
38684;DHT22;24910;53.248;-6.134;2022-11-04T05:07:53;8.90;89.80
38684;DHT22;24910;53.248;-6.134;2022-11-04T05:10:22;8.90;89.80
38684;DHT22;24910;53.248;-6.134;2022-11-04T05:12:51;9.00;90.30
38684;DHT22;24910;53.248;-6.134;2022-11-04T05:15:37;8.90;89.80
38684;DHT22;24910;53.248;-6.134;2022-11-04T05:18:06;8.90;89.80
38684;DHT22;24910;53.248;-6.134;2022-11-04T05:20:37;8.90;89.80
38684;DHT22;24910;53.248;-6.134;2022-11-04T05:23:07;8.90;90.00
38684;DHT22;24910;53.248;-6.134;2022-11-04T05:25:39;8.90;90.00
38684;DHT22;24910;53.248;-6.134;2022-11-04T05:28:08;8.90;90.00
38684;DHT22;24910;53.248;-6.134;2022-11-04T05:30:37;8.90;90.00
38684;DHT22;24910;53.248;-6.134;2022-11-04T05:33:06;8.90;90.00
38684;DHT22;24910;53.248;-6.134;2022-11-04T05:35:37;8.90;89.90
38684;DHT22;24910;53.248;-6.134;2022-11-04T05:38:06;8.90;89.80
38684;DHT22;24910;53.248;-6.134;2022-11-04T05:40:35;8.90;89.80
38684;DHT22;24910;53.248;-6.134;2022-11-04T05:43:04;8.90;89.80
38684;DHT22;24910;53.248;-6.134;2022-11-04T05:45:34;8.90;89.90
38684;DHT22;24910;53.248;-6.134;2022-11-04T05:48:04;8.90;90.00
38684;DHT22;24910;53.248;-6.134;2022-11-04T05:50:33;8.90;90.00
38684;DHT22;24910;53.248;-6.134;2022-11-04T05:53:04;8.90;90.00
38684;DHT22;24910;53.248;-6.134;2022-11-04T05:55:33;8.90;90.00
38684;DHT22;24910;53.248;-6.134;2022-11-04T05:58:02;8.90;89.90
38684;DHT22;24910;53.248;-6.134;2022-11-04T06:00:31;8.90;90.00
38684;DHT22;24910;53.248;-6.134;2022-11-04T06:03:00;8.90;90.00
38684;DHT22;24910;53.248;-6.134;2022-11-04T06:05:30;8.90;90.00
38684;DHT22;24910;53.248;-6.134;2022-11-04T06:07:59;8.90;90.00
38684;DHT22;24910;53.248;-6.134;2022-11-04T06:10:29;8.90;90.00
38684;DHT22;24910;53.248;-6.134;2022-11-04T06:12:58;8.90;90.00
38684;DHT22;24910;53.248;-6.134;2022-11-04T06:15:27;8.90;90.00
38684;DHT22;24910;53.248;-6.134;2022-11-04T06:17:57;8.90;89.90
38684;DHT22;24910;53.248;-6.134;2022-11-04T06:20:26;8.90;89.90
38684;DHT22;24910;53.248;-6.134;2022-11-04T06:22:55;8.90;89.90
38684;DHT22;24910;53.248;-6.134;2022-11-04T06:25:24;8.90;89.90
38684;DHT22;24910;53.248;-6.134;2022-11-04T06:27:54;8.90;89.90
38684;DHT22;24910;53.248;-6.134;2022-11-04T06:30:23;8.90;89.90
38684;DHT22;24910;53.248;-6.134;2022-11-04T06:32:52;8.90;89.90
38684;DHT22;24910;53.248;-6.134;2022-11-04T06:35:21;8.80;89.80
38684;DHT22;24910;53.248;-6.134;2022-11-04T06:37:50;8.90;89.90
38684;DHT22;24910;53.248;-6.134;2022-11-04T06:40:19;8.90;89.90
38684;DHT22;24910;53.248;-6.134;2022-11-04T06:42:48;8.90;89.90
38684;DHT22;24910;53.248;-6.134;2022-11-04T06:45:19;8.90;89.80
38684;DHT22;24910;53.248;-6.134;2022-11-04T06:47:49;8.90;89.80
38684;DHT22;24910;53.248;-6.134;2022-11-04T06:50:18;8.90;89.80
38684;DHT22;24910;53.248;-6.134;2022-11-04T06:52:47;8.90;89.80
38684;DHT22;24910;53.248;-6.134;2022-11-04T06:55:16;8.90;89.70
38684;DHT22;24910;53.248;-6.134;2022-11-04T06:57:45;8.90;89.70
38684;DHT22;24910;53.248;-6.134;2022-11-04T07:00:14;8.90;89.60
38684;DHT22;24910;53.248;-6.134;2022-11-04T07:02:45;9.00;89.70
38684;DHT22;24910;53.248;-6.134;2022-11-04T07:05:14;8.90;89.60
38684;DHT22;24910;53.248;-6.134;2022-11-04T07:07:44;8.90;89.60
38684;DHT22;24910;53.248;-6.134;2022-11-04T07:10:13;8.90;89.50
38684;DHT22;24910;53.248;-6.134;2022-11-04T07:12:43;9.00;89.60
38684;DHT22;24910;53.248;-6.134;2022-11-04T07:15:12;9.00;89.60
38684;DHT22;24910;53.248;-6.134;2022-11-04T07:17:42;9.00;89.60
38684;DHT22;24910;53.248;-6.134;2022-11-04T07:20:12;9.00;89.90
38684;DHT22;24910;53.248;-6.134;2022-11-04T07:22:42;9.00;89.70
38684;DHT22;24910;53.248;-6.134;2022-11-04T07:25:11;9.00;89.60
38684;DHT22;24910;53.248;-6.134;2022-11-04T07:27:41;9.10;89.70
38684;DHT22;24910;53.248;-6.134;2022-11-04T07:30:10;9.10;89.80
38684;DHT22;24910;53.248;-6.134;2022-11-04T07:32:40;9.10;89.70
38684;DHT22;24910;53.248;-6.134;2022-11-04T07:35:09;9.10;89.70
38684;DHT22;24910;53.248;-6.134;2022-11-04T07:37:40;9.10;89.80
38684;DHT22;24910;53.248;-6.134;2022-11-04T07:40:10;9.10;89.70
38684;DHT22;24910;53.248;-6.134;2022-11-04T07:42:42;9.10;89.80
38684;DHT22;24910;53.248;-6.134;2022-11-04T07:45:17;9.10;89.80
38684;DHT22;24910;53.248;-6.134;2022-11-04T07:47:46;9.10;89.80
38684;DHT22;24910;53.248;-6.134;2022-11-04T07:50:15;9.10;89.80
38684;DHT22;24910;53.248;-6.134;2022-11-04T07:52:47;9.20;89.90
38684;DHT22;24910;53.248;-6.134;2022-11-04T07:55:18;9.20;89.90
38684;DHT22;24910;53.248;-6.134;2022-11-04T07:57:47;9.20;89.80
38684;DHT22;24910;53.248;-6.134;2022-11-04T08:00:17;9.20;89.90
38684;DHT22;24910;53.248;-6.134;2022-11-04T08:02:46;9.20;89.90
38684;DHT22;24910;53.248;-6.134;2022-11-04T08:05:16;9.20;90.00
38684;DHT22;24910;53.248;-6.134;2022-11-04T08:07:46;9.20;90.00
38684;DHT22;24910;53.248;-6.134;2022-11-04T08:10:15;9.20;90.00
38684;DHT22;24910;53.248;-6.134;2022-11-04T08:12:45;9.30;90.10
38684;DHT22;24910;53.248;-6.134;2022-11-04T08:15:14;9.20;90.10
38684;DHT22;24910;53.248;-6.134;2022-11-04T08:17:44;9.30;90.10
38684;DHT22;24910;53.248;-6.134;2022-11-04T08:20:13;9.30;90.10
38684;DHT22;24910;53.248;-6.134;2022-11-04T08:22:42;9.30;90.10
38684;DHT22;24910;53.248;-6.134;2022-11-04T08:25:12;9.40;90.10
38684;DHT22;24910;53.248;-6.134;2022-11-04T08:27:41;9.40;90.10
38684;DHT22;24910;53.248;-6.134;2022-11-04T08:30:11;9.40;90.40
38684;DHT22;24910;53.248;-6.134;2022-11-04T08:32:40;9.50;90.10
38684;DHT22;24910;53.248;-6.134;2022-11-04T08:35:11;9.50;90.10
38684;DHT22;24910;53.248;-6.134;2022-11-04T08:37:40;9.60;90.10
38684;DHT22;24910;53.248;-6.134;2022-11-04T08:40:09;9.70;90.10
38684;DHT22;24910;53.248;-6.134;2022-11-04T08:42:40;9.70;90.00
38684;DHT22;24910;53.248;-6.134;2022-11-04T08:45:09;9.70;89.90
38684;DHT22;24910;53.248;-6.134;2022-11-04T08:47:38;9.80;89.90
38684;DHT22;24910;53.248;-6.134;2022-11-04T08:50:10;9.90;89.70
38684;DHT22;24910;53.248;-6.134;2022-11-04T08:52:39;9.90;89.60
38684;DHT22;24910;53.248;-6.134;2022-11-04T08:55:09;10.00;89.40
38684;DHT22;24910;53.248;-6.134;2022-11-04T08:57:39;10.10;89.20
38684;DHT22;24910;53.248;-6.134;2022-11-04T09:00:09;10.10;88.90
38684;DHT22;24910;53.248;-6.134;2022-11-04T09:02:39;10.10;88.60
38684;DHT22;24910;53.248;-6.134;2022-11-04T09:05:08;10.10;88.40
38684;DHT22;24910;53.248;-6.134;2022-11-04T09:07:37;10.20;88.30
38684;DHT22;24910;53.248;-6.134;2022-11-04T09:10:07;10.20;88.10
38684;DHT22;24910;53.248;-6.134;2022-11-04T09:12:37;10.30;87.90
38684;DHT22;24910;53.248;-6.134;2022-11-04T09:15:08;10.40;87.70
38684;DHT22;24910;53.248;-6.134;2022-11-04T09:17:37;10.50;87.50
38684;DHT22;24910;53.248;-6.134;2022-11-04T09:20:07;10.60;87.20
38684;DHT22;24910;53.248;-6.134;2022-11-04T09:22:37;10.70;87.00
38684;DHT22;24910;53.248;-6.134;2022-11-04T09:25:12;10.80;86.80
38684;DHT22;24910;53.248;-6.134;2022-11-04T09:27:41;10.90;86.60
38684;DHT22;24910;53.248;-6.134;2022-11-04T09:30:15;10.90;86.30
38684;DHT22;24910;53.248;-6.134;2022-11-04T09:32:44;10.90;86.00
38684;DHT22;24910;53.248;-6.134;2022-11-04T09:35:19;11.00;85.90
38684;DHT22;24910;53.248;-6.134;2022-11-04T09:37:48;11.00;85.70
38684;DHT22;24910;53.248;-6.134;2022-11-04T09:40:19;11.10;85.60
38684;DHT22;24910;53.248;-6.134;2022-11-04T09:43:09;11.10;85.50
38684;DHT22;24910;53.248;-6.134;2022-11-04T09:45:43;11.10;85.30
38684;DHT22;24910;53.248;-6.134;2022-11-04T09:48:20;11.20;85.20
38684;DHT22;24910;53.248;-6.134;2022-11-04T09:50:55;11.20;85.10
38684;DHT22;24910;53.248;-6.134;2022-11-04T09:53:29;11.30;85.00
38684;DHT22;24910;53.248;-6.134;2022-11-04T09:56:03;11.30;85.00
38684;DHT22;24910;53.248;-6.134;2022-11-04T09:58:37;11.40;84.80
38684;DHT22;24910;53.248;-6.134;2022-11-04T10:01:19;11.50;84.80
38684;DHT22;24910;53.248;-6.134;2022-11-04T10:04:02;11.50;85.40
38684;DHT22;24910;53.248;-6.134;2022-11-04T10:06:41;11.70;84.40
38684;DHT22;24910;53.248;-6.134;2022-11-04T10:09:26;11.80;84.30
38684;DHT22;24910;53.248;-6.134;2022-11-04T10:12:09;11.80;84.00
38684;DHT22;24910;53.248;-6.134;2022-11-04T10:14:53;11.90;83.90
38684;DHT22;24910;53.248;-6.134;2022-11-04T10:17:40;12.00;83.70
38684;DHT22;24910;53.248;-6.134;2022-11-04T10:20:22;12.10;83.60
38684;DHT22;24910;53.248;-6.134;2022-11-04T10:22:56;12.10;83.30
38684;DHT22;24910;53.248;-6.134;2022-11-04T10:25:31;12.20;83.00
38684;DHT22;24910;53.248;-6.134;2022-11-04T10:28:06;12.20;82.70
38684;DHT22;24910;53.248;-6.134;2022-11-04T10:30:40;12.30;82.40
38684;DHT22;24910;53.248;-6.134;2022-11-04T10:33:18;12.30;82.10
38684;DHT22;24910;53.248;-6.134;2022-11-04T10:35:51;12.20;81.70
38684;DHT22;24910;53.248;-6.134;2022-11-04T10:38:31;12.20;81.60
38684;DHT22;24910;53.248;-6.134;2022-11-04T10:41:04;12.20;81.40
38684;DHT22;24910;53.248;-6.134;2022-11-04T10:43:40;12.30;81.30
38684;DHT22;24910;53.248;-6.134;2022-11-04T10:46:24;12.30;80.90
38684;DHT22;24910;53.248;-6.134;2022-11-04T10:49:01;12.30;80.60
38684;DHT22;24910;53.248;-6.134;2022-11-04T10:51:31;12.40;80.60
38684;DHT22;24910;53.248;-6.134;2022-11-04T10:54:01;12.50;80.40
38684;DHT22;24910;53.248;-6.134;2022-11-04T10:56:37;12.50;80.00
38684;DHT22;24910;53.248;-6.134;2022-11-04T10:59:18;12.50;79.90
38684;DHT22;24910;53.248;-6.134;2022-11-04T11:01:52;12.50;79.80
38684;DHT22;24910;53.248;-6.134;2022-11-04T11:04:29;12.40;79.80
38684;DHT22;24910;53.248;-6.134;2022-11-04T11:07:00;12.40;79.90
38684;DHT22;24910;53.248;-6.134;2022-11-04T11:09:31;12.50;79.90
38684;DHT22;24910;53.248;-6.134;2022-11-04T11:12:02;12.40;79.80
38684;DHT22;24910;53.248;-6.134;2022-11-04T11:14:53;12.50;79.70
38684;DHT22;24910;53.248;-6.134;2022-11-04T11:17:24;12.50;79.50
38684;DHT22;24910;53.248;-6.134;2022-11-04T11:19:55;12.50;79.30
38684;DHT22;24910;53.248;-6.134;2022-11-04T11:22:29;12.60;79.30
38684;DHT22;24910;53.248;-6.134;2022-11-04T11:25:19;12.60;79.30
38684;DHT22;24910;53.248;-6.134;2022-11-04T11:27:51;12.60;79.00
38684;DHT22;24910;53.248;-6.134;2022-11-04T11:30:24;12.70;79.00
38684;DHT22;24910;53.248;-6.134;2022-11-04T11:32:56;12.60;78.80
38684;DHT22;24910;53.248;-6.134;2022-11-04T11:35:32;12.70;78.80
38684;DHT22;24910;53.248;-6.134;2022-11-04T11:38:20;12.70;78.70
38684;DHT22;24910;53.248;-6.134;2022-11-04T11:40:50;12.70;78.50
38684;DHT22;24910;53.248;-6.134;2022-11-04T11:43:43;12.70;78.60
38684;DHT22;24910;53.248;-6.134;2022-11-04T11:46:20;12.70;78.60
38684;DHT22;24910;53.248;-6.134;2022-11-04T11:48:52;12.70;78.40
38684;DHT22;24910;53.248;-6.134;2022-11-04T11:51:28;12.70;78.30
38684;DHT22;24910;53.248;-6.134;2022-11-04T11:54:27;12.60;78.20
38684;DHT22;24910;53.248;-6.134;2022-11-04T11:57:03;12.60;78.00
38684;DHT22;24910;53.248;-6.134;2022-11-04T11:59:45;12.50;78.20
38684;DHT22;24910;53.248;-6.134;2022-11-04T12:02:46;12.50;78.30
38684;DHT22;24910;53.248;-6.134;2022-11-04T12:05:19;12.50;78.30
38684;DHT22;24910;53.248;-6.134;2022-11-04T12:08:42;12.50;78.30
38684;DHT22;24910;53.248;-6.134;2022-11-04T12:11:42;12.60;78.30
38684;DHT22;24910;53.248;-6.134;2022-11-04T12:14:17;12.60;78.20
38684;DHT22;24910;53.248;-6.134;2022-11-04T12:16:54;12.60;78.20
38684;DHT22;24910;53.248;-6.134;2022-11-04T12:19:51;12.60;78.00
38684;DHT22;24910;53.248;-6.134;2022-11-04T12:22:28;12.60;77.90
38684;DHT22;24910;53.248;-6.134;2022-11-04T12:25:10;12.60;77.90
38684;DHT22;24910;53.248;-6.134;2022-11-04T12:27:44;12.70;77.80
38684;DHT22;24910;53.248;-6.134;2022-11-04T12:30:18;12.70;77.90
38684;DHT22;24910;53.248;-6.134;2022-11-04T12:33:11;12.70;78.00
38684;DHT22;24910;53.248;-6.134;2022-11-04T12:36:02;12.60;78.00
38684;DHT22;24910;53.248;-6.134;2022-11-04T12:39:05;12.60;78.20
38684;DHT22;24910;53.248;-6.134;2022-11-04T12:41:48;12.60;78.20
38684;DHT22;24910;53.248;-6.134;2022-11-04T12:44:44;12.60;78.20
38684;DHT22;24910;53.248;-6.134;2022-11-04T12:47:24;12.50;78.30
38684;DHT22;24910;53.248;-6.134;2022-11-04T12:50:01;12.50;78.30
38684;DHT22;24910;53.248;-6.134;2022-11-04T12:52:56;12.60;78.30
38684;DHT22;24910;53.248;-6.134;2022-11-04T12:55:34;12.60;78.30
38684;DHT22;24910;53.248;-6.134;2022-11-04T12:58:27;12.60;78.30
38684;DHT22;24910;53.248;-6.134;2022-11-04T13:01:00;12.60;78.20
38684;DHT22;24910;53.248;-6.134;2022-11-04T13:03:35;12.50;78.30
38684;DHT22;24910;53.248;-6.134;2022-11-04T13:06:11;12.50;78.30
38684;DHT22;24910;53.248;-6.134;2022-11-04T13:08:47;12.60;78.40
38684;DHT22;24910;53.248;-6.134;2022-11-04T13:11:20;12.60;78.50
38684;DHT22;24910;53.248;-6.134;2022-11-04T13:13:57;12.70;78.50
38684;DHT22;24910;53.248;-6.134;2022-11-04T13:16:31;12.70;78.40
38684;DHT22;24910;53.248;-6.134;2022-11-04T13:19:04;12.80;78.40
38684;DHT22;24910;53.248;-6.134;2022-11-04T13:21:35;12.80;78.30
38684;DHT22;24910;53.248;-6.134;2022-11-04T13:24:16;12.80;78.30
38684;DHT22;24910;53.248;-6.134;2022-11-04T13:26:48;12.90;78.20
38684;DHT22;24910;53.248;-6.134;2022-11-04T13:29:20;12.90;78.20
38684;DHT22;24910;53.248;-6.134;2022-11-04T13:31:57;12.90;78.20
38684;DHT22;24910;53.248;-6.134;2022-11-04T13:34:36;12.90;78.30
38684;DHT22;24910;53.248;-6.134;2022-11-04T13:37:15;12.90;78.40
38684;DHT22;24910;53.248;-6.134;2022-11-04T13:39:47;12.80;78.40
38684;DHT22;24910;53.248;-6.134;2022-11-04T13:45:51;12.70;78.60
38684;DHT22;24910;53.248;-6.134;2022-11-04T13:48:24;12.70;78.70
38684;DHT22;24910;53.248;-6.134;2022-11-04T13:50:56;12.70;78.70
38684;DHT22;24910;53.248;-6.134;2022-11-04T13:53:43;12.60;78.80
38684;DHT22;24910;53.248;-6.134;2022-11-04T13:56:30;12.60;79.00
38684;DHT22;24910;53.248;-6.134;2022-11-04T13:59:06;12.50;79.10
38684;DHT22;24910;53.248;-6.134;2022-11-04T14:01:37;12.50;79.20
38684;DHT22;24910;53.248;-6.134;2022-11-04T14:04:24;12.50;79.30
38684;DHT22;24910;53.248;-6.134;2022-11-04T14:06:57;12.50;79.50
38684;DHT22;24910;53.248;-6.134;2022-11-04T14:09:51;12.50;79.50
38684;DHT22;24910;53.248;-6.134;2022-11-04T14:12:38;12.50;79.60
38684;DHT22;24910;53.248;-6.134;2022-11-04T14:15:59;12.50;79.60
38684;DHT22;24910;53.248;-6.134;2022-11-04T14:18:31;12.50;79.60
38684;DHT22;24910;53.248;-6.134;2022-11-04T14:21:05;12.50;79.60
38684;DHT22;24910;53.248;-6.134;2022-11-04T14:23:36;12.50;79.80
38684;DHT22;24910;53.248;-6.134;2022-11-04T14:26:08;12.40;79.80
38684;DHT22;24910;53.248;-6.134;2022-11-04T14:28:41;12.40;80.00
38684;DHT22;24910;53.248;-6.134;2022-11-04T14:31:13;12.40;80.10
38684;DHT22;24910;53.248;-6.134;2022-11-04T14:33:53;12.40;80.30
38684;DHT22;24910;53.248;-6.134;2022-11-04T14:36:34;12.40;80.40
38684;DHT22;24910;53.248;-6.134;2022-11-04T14:39:18;12.40;80.50
38684;DHT22;24910;53.248;-6.134;2022-11-04T14:41:58;12.40;80.50
38684;DHT22;24910;53.248;-6.134;2022-11-04T14:44:31;12.40;80.70
38684;DHT22;24910;53.248;-6.134;2022-11-04T14:47:12;12.40;80.80
38684;DHT22;24910;53.248;-6.134;2022-11-04T14:49:47;12.50;80.90
38684;DHT22;24910;53.248;-6.134;2022-11-04T14:52:23;12.50;80.90
38684;DHT22;24910;53.248;-6.134;2022-11-04T14:54:56;12.50;81.00
38684;DHT22;24910;53.248;-6.134;2022-11-04T14:57:28;12.40;81.00
38684;DHT22;24910;53.248;-6.134;2022-11-04T14:59:58;12.40;81.10
38684;DHT22;24910;53.248;-6.134;2022-11-04T15:02:28;12.40;81.20
38684;DHT22;24910;53.248;-6.134;2022-11-04T15:05:02;12.40;81.30
38684;DHT22;24910;53.248;-6.134;2022-11-04T15:07:33;12.40;81.50
38684;DHT22;24910;53.248;-6.134;2022-11-04T15:10:18;12.40;81.60
38684;DHT22;24910;53.248;-6.134;2022-11-04T15:12:48;12.40;81.70
38684;DHT22;24910;53.248;-6.134;2022-11-04T15:15:31;12.40;81.80
38684;DHT22;24910;53.248;-6.134;2022-11-04T15:18:05;12.40;81.80
38684;DHT22;24910;53.248;-6.134;2022-11-04T15:20:39;12.40;81.90
38684;DHT22;24910;53.248;-6.134;2022-11-04T15:23:15;12.40;82.00
38684;DHT22;24910;53.248;-6.134;2022-11-04T15:25:46;12.40;82.20
38684;DHT22;24910;53.248;-6.134;2022-11-04T15:28:18;12.40;82.30
38684;DHT22;24910;53.248;-6.134;2022-11-04T15:31:12;12.40;82.50
38684;DHT22;24910;53.248;-6.134;2022-11-04T15:33:45;12.40;82.70
38684;DHT22;24910;53.248;-6.134;2022-11-04T15:36:19;12.40;82.60
38684;DHT22;24910;53.248;-6.134;2022-11-04T15:38:51;12.40;82.70
38684;DHT22;24910;53.248;-6.134;2022-11-04T15:41:22;12.40;82.70
38684;DHT22;24910;53.248;-6.134;2022-11-04T15:44:17;12.40;82.80
38684;DHT22;24910;53.248;-6.134;2022-11-04T15:46:49;12.40;82.90
38684;DHT22;24910;53.248;-6.134;2022-11-04T15:49:21;12.40;83.00
38684;DHT22;24910;53.248;-6.134;2022-11-04T15:51:54;12.40;83.10
38684;DHT22;24910;53.248;-6.134;2022-11-04T15:54:28;12.40;83.20
38684;DHT22;24910;53.248;-6.134;2022-11-04T15:56:59;12.40;83.20
38684;DHT22;24910;53.248;-6.134;2022-11-04T15:59:32;12.40;83.30
38684;DHT22;24910;53.248;-6.134;2022-11-04T16:02:04;12.40;83.50
38684;DHT22;24910;53.248;-6.134;2022-11-04T16:04:43;12.40;83.60
38684;DHT22;24910;53.248;-6.134;2022-11-04T16:07:23;12.40;83.70
38684;DHT22;24910;53.248;-6.134;2022-11-04T16:09:53;12.40;83.80
38684;DHT22;24910;53.248;-6.134;2022-11-04T16:12:27;12.40;83.80
38684;DHT22;24910;53.248;-6.134;2022-11-04T16:14:58;12.40;83.80
38684;DHT22;24910;53.248;-6.134;2022-11-04T16:17:30;12.40;83.90